Hauptseite
METAR-TAF:

METAR-TAF

Flughäfen :

Siegerlandflughafen

Siegen, Deutschland

Breite: 50-42-28N, Länge: 008-04-59E, Höhe: 602 m

Beobachtung

Neuester Wetterbericht von vor 8 Stunden und 55 Minuten, um 19:50 UTC
Wind 11 kt aus Südost
Temperatur 5°C
Luftfeuchtigkeit 100%
Luftdruck 1027 hPa
Sichtweite: 0500 m
Nebel

METAR: EDGS 141950Z 13011KT 0500 0400/ R13/0550V0750N FG VV/// 05/05 Q1027

Zeit: 05:45 (04:45 UTC)

Prognose

Neuester Wetterbericht von vor 11 Stunden und 45 Minuten, um 17:00 UTC
Gültige Prognose vom 14 um 18 UTC bis 15 um 03 UTC
Wind 8 kt aus Ost/Südost
Sichtweite: 0600 m
Geschlossene Wolkendecke in der Höhe von 100 ft
Nebel
Zeitweise
vom 14 um 18 UTC bis 15 um 03 UTC
Sichtweite: 0150 m
in der Höhe weniger als 100 ft
Nebel

TAF: EDGS 141700Z 1418/1503 12008KT 0600 FG OVC001 TEMPO 1418/1503 0150 FG VV000

Wetterbeobachtungen und Prognosen von mehr als 4000 Flughäfen (METAR und TAF Bericht).

Die verfügbaren Stationen werden durch gelbe und rote Markierungen auf der Karte dargestellt.

Führen Sie die Maus auf sie, um den Namen der Station zu sehen.

Darauf klicken, um die Beobachtung von Wetterbeobachtungen und Prognosen zu sehen.

Um die Karte zu ändern : klicken Sie auf den grünen Tasten mit einem schwarzen Kreuz Zum Vergrößern, auf den grünen Button mit einem Gedankenstrich zu verkleinern, oder auf die grünen Pfeile für benachbarte Karten.


METAR-TAF: